Pioneer, Louisiana
Current Conditions -  °F | °C
As of 7:15 PM on Friday 19 Dec 2014 (Local Time) from KBQP Reporting Station
Overcast Overcast  
Wind Chill: 46°   Ceiling: 900
Heat Index: 46°   Visibility: 7mi
Dew Point: 44°   Wind: 3mph
Humidity: 96%   Direction: 20°NNE
Pressure: 30.19"   Gusts: NA
Location:  32.74°N, 91.43°W
Report Text: KBQP 200115Z AUTO 02003KT 7SM OVC009 08/07 A3019 RMK AO2 T00750069
Loading
Personal Weather Stations






























Interactive Weather Map New forecast layout! Learn more

10-Day Weather Forecast

Advertisements
Track Severe Weather on mobile